Mendota, California
Current Conditions -  °F | °C
As of 10:53 AM on Saturday 20 Dec 2014 (Local Time) from KMAE Reporting Station
Overcast Overcast  
Wind Chill: 56°   Ceiling: 6000
Heat Index: 56°   Visibility: 10mi
Dew Point: 48°   Wind: 7mph
Humidity: 75%   Direction: 140°SE
Pressure: 30.23"   Gusts: NA
Location:  36.75°N, 120.37°W
Report Text: KMAE 201853Z AUTO 14006KT 10SM BKN060 OVC110 13/09 A3023 RMK AO2 SLP235 T01330089
Loading
Personal Weather Stations






























Interactive Weather Map New forecast layout! Learn more

10-Day Weather Forecast

Advertisements
Track Severe Weather on mobile